Gifford, South Carolina
Current Conditions -  °F | °C
As of 10:35 PM on Monday 22 Dec 2014 (Local Time) from KAQX Reporting Station
Haze Haze  
Wind Chill: 44°   Ceiling: 300
Heat Index: 46°   Visibility: 2mi
Dew Point: 46°   Wind: 5mph
Humidity: 100%   Direction: NA
Pressure: 29.98"   Gusts: NA
Location:  32.86°N, 81.24°W
Report Text: KAQX 230335Z AUTO VRB04KT 2SM BR OVC003 08/08 A2998 RMK AO2
Loading
Personal Weather Stations






























Interactive Weather Map New forecast layout! Learn more

10-Day Weather Forecast

Advertisements
Track Severe Weather on mobile